createdAt,value
2022-11-14T00:00:50.777Z,9.20
2022-11-14T00:04:10.818Z,10.67
2022-11-14T00:07:32.346Z,9.03
2022-11-14T00:10:52.582Z,9.73
2022-11-14T00:14:12.986Z,10.33
2022-11-14T00:17:33.435Z,9.27
2022-11-14T00:20:54.024Z,9.50
2022-11-14T00:24:14.431Z,9.60
2022-11-14T00:27:35.283Z,10.20
2022-11-14T00:30:55.676Z,10.20
2022-11-14T00:34:16.294Z,8.83
2022-11-14T00:37:36.876Z,9.73
2022-11-14T00:40:57.198Z,9.50
2022-11-14T00:44:17.691Z,9.73
2022-11-14T00:47:38.277Z,9.63
2022-11-14T00:50:59.091Z,10.00
2022-11-14T00:54:19.303Z,9.53
2022-11-14T00:57:39.715Z,9.40
2022-11-14T01:01:00.322Z,10.30
2022-11-14T01:04:20.904Z,9.23
2022-11-14T01:07:41.123Z,10.30
2022-11-14T01:11:01.397Z,8.97
2022-11-14T01:14:21.756Z,10.30
2022-11-14T01:17:42.244Z,10.37
2022-11-14T01:21:06.499Z,9.90
2022-11-14T01:24:26.665Z,9.13
2022-11-14T01:27:47.103Z,10.83
2022-11-14T01:31:16.254Z,9.13
2022-11-14T01:34:36.797Z,9.20
2022-11-14T01:37:57.326Z,9.70
2022-11-14T01:41:17.758Z,9.50
2022-11-14T01:44:39.927Z,8.80
2022-11-14T01:48:00.037Z,10.13
2022-11-14T01:51:40.721Z,10.70
2022-11-14T01:55:05.372Z,8.97
2022-11-14T01:58:27.838Z,9.07
2022-11-14T02:01:52.899Z,9.00
2022-11-14T02:05:16.379Z,10.43
2022-11-14T02:08:36.976Z,9.03
2022-11-14T02:12:00.738Z,9.77
2022-11-14T02:15:20.770Z,10.40
2022-11-14T02:18:41.141Z,9.57
2022-11-14T02:22:01.463Z,9.40
2022-11-14T02:25:21.903Z,9.23
2022-11-14T02:28:42.307Z,9.47
2022-11-14T02:32:05.695Z,8.53
2022-11-14T02:35:29.687Z,8.37
2022-11-14T02:38:50.057Z,9.73
2022-11-14T02:42:10.472Z,9.50
2022-11-14T02:45:30.794Z,9.97
2022-11-14T02:48:51.244Z,9.03
2022-11-14T02:52:11.682Z,9.00
2022-11-14T02:55:32.269Z,8.37
2022-11-14T02:58:52.663Z,8.63
2022-11-14T03:02:14.109Z,7.53
2022-11-14T03:05:34.415Z,8.93
2022-11-14T03:08:54.813Z,9.00
2022-11-14T03:12:18.997Z,9.17
2022-11-14T03:15:39.387Z,8.77
2022-11-14T03:18:59.847Z,9.47
2022-11-14T03:22:20.234Z,8.50
2022-11-14T03:25:40.843Z,8.63
2022-11-14T03:29:00.955Z,9.70
2022-11-14T03:32:21.510Z,9.43
2022-11-14T03:35:45.118Z,10.13
2022-11-14T03:39:05.945Z,9.20
2022-11-14T03:42:26.691Z,9.07
2022-11-14T03:45:47.876Z,8.23
2022-11-14T03:49:08.018Z,8.83
2022-11-14T03:52:28.403Z,7.83
2022-11-14T03:55:48.792Z,9.47
2022-11-14T03:59:09.268Z,9.00
2022-11-14T04:02:29.638Z,9.77
2022-11-14T04:05:50.507Z,7.90
2022-11-14T04:09:10.793Z,8.47
2022-11-14T04:12:31.067Z,9.53
2022-11-14T04:15:56.341Z,8.27
2022-11-14T04:19:16.564Z,8.77
2022-11-14T04:22:37.137Z,8.97
2022-11-14T04:25:58.003Z,8.57
2022-11-14T04:29:18.147Z,10.47
2022-11-14T04:32:38.509Z,9.00
2022-11-14T04:35:58.911Z,8.70
2022-11-14T04:39:19.378Z,9.10
2022-11-14T04:42:39.864Z,9.77
2022-11-14T04:46:00.479Z,8.23
2022-11-14T04:49:20.860Z,8.73
2022-11-14T04:52:41.215Z,9.27
2022-11-14T04:56:01.538Z,8.40
2022-11-14T04:59:21.886Z,8.43
2022-11-14T05:02:42.257Z,7.63
2022-11-14T05:06:03.057Z,8.27
2022-11-14T05:09:23.326Z,7.93
2022-11-14T05:12:43.608Z,8.50
2022-11-14T05:16:04.088Z,9.67
2022-11-14T05:19:24.610Z,9.80
2022-11-14T05:22:45.033Z,8.30
2022-11-14T05:26:08.895Z,7.57
2022-11-14T05:29:29.125Z,7.33
2022-11-14T05:32:52.007Z,8.53
2022-11-14T05:36:14.323Z,9.50
2022-11-14T05:39:34.377Z,9.07
2022-11-14T05:42:56.551Z,9.10
2022-11-14T05:46:17.061Z,9.17
2022-11-14T05:49:37.156Z,9.83
2022-11-14T05:52:57.667Z,10.83
2022-11-14T05:56:18.253Z,9.97
2022-11-14T05:59:38.910Z,8.80
2022-11-14T06:02:59.420Z,9.40
2022-11-14T06:06:21.487Z,9.23
2022-11-14T06:09:41.753Z,9.73
2022-11-14T06:13:02.479Z,8.80
2022-11-14T06:16:22.914Z,9.57
2022-11-14T06:19:43.338Z,8.70
2022-11-14T06:23:03.716Z,8.63
2022-11-14T06:26:30.595Z,8.83
2022-11-14T06:29:51.062Z,9.20
2022-11-14T06:33:11.344Z,9.47
2022-11-14T06:36:31.856Z,8.57
2022-11-14T06:39:52.208Z,9.27
2022-11-14T06:43:12.642Z,9.73
2022-11-14T06:46:33.111Z,9.53
2022-11-14T06:49:53.475Z,8.97
2022-11-14T06:53:13.893Z,8.13
2022-11-14T06:56:34.130Z,9.57
2022-11-14T06:59:54.455Z,10.03
2022-11-14T07:03:14.975Z,8.33
2022-11-14T07:06:35.393Z,8.67
2022-11-14T07:09:56.515Z,9.17
2022-11-14T07:13:16.530Z,8.30
2022-11-14T07:16:36.767Z,9.13
2022-11-14T07:19:57.167Z,9.07
2022-11-14T07:23:22.549Z,10.13
2022-11-14T07:26:43.123Z,9.57
2022-11-14T07:30:04.260Z,9.93
2022-11-14T07:33:24.378Z,11.60
2022-11-14T07:36:45.040Z,10.80
2022-11-14T07:40:05.534Z,10.20
2022-11-14T07:43:26.200Z,11.27
2022-11-14T07:46:46.231Z,9.73
2022-11-14T07:50:07.125Z,9.13
2022-11-14T07:53:28.300Z,10.20
2022-11-14T07:56:48.474Z,9.43
2022-11-14T08:00:10.684Z,10.50
2022-11-14T08:03:31.762Z,11.30
2022-11-14T08:06:52.163Z,11.17
2022-11-14T08:10:14.108Z,13.20
2022-11-14T08:13:34.602Z,12.67
2022-11-14T08:16:55.068Z,11.23
2022-11-14T08:20:15.778Z,11.83
2022-11-14T08:23:36.114Z,9.17
2022-11-14T08:26:56.443Z,9.80
2022-11-14T08:30:17.079Z,9.77
2022-11-14T08:33:37.313Z,12.43
2022-11-14T08:36:58.263Z,10.70
2022-11-14T08:40:19.417Z,11.00
2022-11-14T08:43:39.512Z,11.23
2022-11-14T08:47:00.345Z,11.23
2022-11-14T08:50:20.621Z,9.73
2022-11-14T08:53:41.095Z,10.10
2022-11-14T08:57:01.462Z,10.67
2022-11-14T09:00:22.206Z,11.00
2022-11-14T09:03:42.378Z,9.57
2022-11-14T09:07:02.595Z,10.17
2022-11-14T09:10:23.000Z,9.67
2022-11-14T09:13:43.278Z,10.20
2022-11-14T09:17:06.121Z,11.23
2022-11-14T09:20:33.125Z,11.43
2022-11-14T09:24:00.411Z,10.20
2022-11-14T09:27:22.099Z,10.60
2022-11-14T09:30:42.724Z,10.60
2022-11-14T09:34:02.932Z,9.07
2022-11-14T09:37:23.462Z,10.83
2022-11-14T09:41:03.509Z,11.10
2022-11-14T09:44:48.952Z,10.80
2022-11-14T09:48:15.400Z,10.17
2022-11-14T09:51:46.688Z,11.50
2022-11-14T09:55:14.062Z,10.47
2022-11-14T09:58:34.415Z,10.70
2022-11-14T10:02:33.113Z,10.27
2022-11-14T10:05:59.277Z,11.23
2022-11-14T10:09:47.161Z,10.60
2022-11-14T10:13:22.941Z,10.20
2022-11-14T10:17:23.963Z,10.83
2022-11-14T10:21:10.288Z,10.47
2022-11-14T10:24:46.743Z,10.23
2022-11-14T10:28:58.512Z,9.90
2022-11-14T10:32:48.458Z,10.47
2022-11-14T10:36:08.724Z,9.83
2022-11-14T10:39:42.092Z,9.90
2022-11-14T10:43:29.616Z,9.10
2022-11-14T10:46:55.794Z,9.97
2022-11-14T10:50:27.276Z,10.07
2022-11-14T10:54:02.326Z,9.80
2022-11-14T10:57:23.243Z,8.70
2022-11-14T11:00:43.777Z,10.87
2022-11-14T11:04:26.145Z,10.83
2022-11-14T11:08:42.048Z,10.73
2022-11-14T11:11:57.037Z,10.43
2022-11-14T11:15:27.943Z,10.83
2022-11-14T11:18:50.722Z,11.23
2022-11-14T11:22:23.635Z,11.00
2022-11-14T11:25:44.094Z,10.80
2022-11-14T11:29:16.105Z,9.90
2022-11-14T11:32:36.451Z,10.00
2022-11-14T11:36:03.291Z,9.93
2022-11-14T11:39:29.428Z,11.20
2022-11-14T11:46:52.526Z,10.33
2022-11-14T11:50:19.096Z,10.13
2022-11-14T11:53:58.371Z,9.67
2022-11-14T11:57:22.956Z,10.87
2022-11-14T12:00:43.320Z,11.00
2022-11-14T12:04:04.285Z,10.40
2022-11-14T12:07:38.498Z,10.67
2022-11-14T12:10:59.904Z,9.40
2022-11-14T12:14:57.192Z,9.23
2022-11-14T12:18:20.171Z,8.53
2022-11-14T12:21:59.012Z,9.17
2022-11-14T12:25:42.032Z,8.10
2022-11-14T12:29:15.212Z,8.33
2022-11-14T12:32:55.217Z,9.00
2022-11-14T12:36:15.829Z,8.23
2022-11-14T12:39:37.317Z,7.83
2022-11-14T12:42:58.958Z,7.37
2022-11-14T12:46:19.346Z,8.27
2022-11-14T12:49:59.016Z,7.43
2022-11-14T12:53:37.541Z,7.67
2022-11-14T12:57:01.828Z,7.60
2022-11-14T13:00:22.455Z,7.60
2022-11-14T13:04:06.662Z,7.63
2022-11-14T13:08:06.010Z,7.93
2022-11-14T13:11:56.758Z,8.33
2022-11-14T13:16:07.118Z,8.17
2022-11-14T13:19:46.516Z,8.50
2022-11-14T13:23:25.119Z,7.73
2022-11-14T13:26:51.868Z,8.73
2022-11-14T13:30:12.437Z,8.73
2022-11-14T13:33:50.313Z,9.40
2022-11-14T13:37:40.384Z,7.63
2022-11-14T13:41:12.488Z,8.97
2022-11-14T13:44:45.747Z,8.50
2022-11-14T13:48:25.871Z,8.03
2022-11-14T13:51:46.804Z,8.57
2022-11-14T13:55:07.953Z,7.97
2022-11-14T13:58:50.534Z,8.10
2022-11-14T14:02:10.604Z,8.90
2022-11-14T14:05:57.234Z,7.17
2022-11-14T14:09:41.745Z,7.40
2022-11-14T14:13:25.994Z,7.43
2022-11-14T14:16:59.960Z,8.30
2022-11-14T14:20:34.065Z,7.47
2022-11-14T14:24:03.135Z,8.63
2022-11-14T14:27:31.932Z,8.87
2022-11-14T14:31:03.313Z,9.77
2022-11-14T14:34:31.546Z,7.10
2022-11-14T14:37:53.873Z,6.03
2022-11-14T14:41:18.007Z,6.23
2022-11-14T14:44:39.963Z,6.57
2022-11-14T14:48:06.891Z,6.43
2022-11-14T14:51:33.805Z,5.40
2022-11-14T14:54:55.451Z,5.87
2022-11-14T14:58:22.720Z,5.67
2022-11-14T15:01:43.311Z,5.10
2022-11-14T15:05:05.034Z,6.90
2022-11-14T15:08:26.383Z,5.07
2022-11-14T15:11:50.956Z,5.60
2022-11-14T15:15:16.439Z,7.40
2022-11-14T15:18:37.549Z,7.53
2022-11-14T15:22:03.951Z,5.97
2022-11-14T15:25:24.158Z,6.40
2022-11-14T15:28:45.340Z,5.50
2022-11-14T15:32:05.585Z,6.50
2022-11-14T15:35:32.527Z,6.73
2022-11-14T15:39:00.412Z,7.17
2022-11-14T15:42:31.649Z,7.20
2022-11-14T15:45:51.916Z,7.33
2022-11-14T15:49:25.361Z,10.27
2022-11-14T15:52:54.047Z,7.93
2022-11-14T15:56:14.581Z,8.27
2022-11-14T15:59:36.040Z,8.27
2022-11-14T16:02:57.449Z,9.47
2022-11-14T16:06:18.117Z,7.57
2022-11-14T16:09:38.271Z,6.97
2022-11-14T16:12:58.763Z,7.77
2022-11-14T16:16:19.249Z,7.40
2022-11-14T16:19:39.830Z,8.37
2022-11-14T16:23:00.326Z,9.80
2022-11-14T16:26:20.978Z,7.70
2022-11-14T16:29:41.043Z,7.30
2022-11-14T16:33:01.434Z,7.60
2022-11-14T16:36:22.093Z,6.57
2022-11-14T16:39:42.366Z,7.37
2022-11-14T16:43:03.443Z,7.17
2022-11-14T16:46:24.600Z,5.70
2022-11-14T16:49:44.994Z,6.20
2022-11-14T16:53:05.987Z,8.17
2022-11-14T16:56:26.515Z,6.77
2022-11-14T16:59:47.865Z,5.47
2022-11-14T17:03:08.129Z,6.53
2022-11-14T17:06:29.497Z,6.67
2022-11-14T17:09:49.792Z,6.30
2022-11-14T17:13:11.472Z,6.47
2022-11-14T17:16:31.784Z,6.90
2022-11-14T17:19:53.229Z,6.20
2022-11-14T17:23:13.444Z,6.00
2022-11-14T17:26:33.930Z,6.20
2022-11-14T17:29:54.359Z,5.93
2022-11-14T17:33:14.723Z,6.67
2022-11-14T17:36:35.207Z,6.67
2022-11-14T17:39:55.624Z,7.20
2022-11-14T17:43:16.997Z,6.27
2022-11-14T17:46:37.497Z,9.47
2022-11-14T17:49:57.706Z,7.77
2022-11-14T17:53:18.207Z,7.50
2022-11-14T17:56:44.338Z,6.60
2022-11-14T18:00:08.483Z,6.43
2022-11-14T18:03:28.558Z,6.37
2022-11-14T18:06:48.890Z,7.30
2022-11-14T18:10:09.550Z,7.30
2022-11-14T18:13:30.248Z,6.93
2022-11-14T18:17:11.764Z,7.97
2022-11-14T18:20:30.815Z,7.40
2022-11-14T18:23:56.132Z,7.23
2022-11-14T18:27:16.409Z,8.93
2022-11-14T18:30:41.368Z,6.50
2022-11-14T18:34:02.868Z,8.13
2022-11-14T18:37:23.571Z,6.70
2022-11-14T18:40:44.353Z,6.80
2022-11-14T18:44:05.255Z,6.73
2022-11-14T18:47:25.175Z,8.03
2022-11-14T18:50:45.800Z,7.20
2022-11-14T18:54:06.380Z,8.63
2022-11-14T18:57:26.842Z,7.27
2022-11-14T19:00:47.219Z,7.27
2022-11-14T19:04:09.720Z,8.30
2022-11-14T19:07:30.125Z,7.63
2022-11-14T19:10:50.784Z,7.40
2022-11-14T19:14:11.502Z,7.30
2022-11-14T19:17:31.767Z,7.10
2022-11-14T19:21:03.210Z,8.10
2022-11-14T19:24:23.802Z,7.77
2022-11-14T19:27:49.254Z,8.10
2022-11-14T19:31:10.983Z,7.97
2022-11-14T19:34:31.518Z,8.13
2022-11-14T19:37:51.917Z,9.87
2022-11-14T19:41:20.218Z,7.80
2022-11-14T19:44:40.644Z,7.87
2022-11-14T19:48:01.241Z,8.57
2022-11-14T19:51:22.416Z,7.83
2022-11-14T19:54:42.865Z,8.00
2022-11-14T19:58:03.173Z,7.87
2022-11-14T20:01:28.537Z,6.97
2022-11-14T20:04:49.544Z,7.87
2022-11-14T20:08:09.800Z,8.00
2022-11-14T20:11:30.832Z,7.20
2022-11-14T20:14:51.398Z,7.23
2022-11-14T20:18:11.931Z,7.60
2022-11-14T20:21:34.533Z,7.57
2022-11-14T20:24:54.914Z,6.17
2022-11-14T20:28:15.210Z,6.10
2022-11-14T20:31:35.690Z,6.03
2022-11-14T20:34:56.296Z,6.50
2022-11-14T20:38:16.796Z,7.50
2022-11-14T20:41:37.252Z,7.30
2022-11-14T20:44:57.639Z,6.57
2022-11-14T20:48:17.993Z,7.13
2022-11-14T20:51:38.848Z,7.03
2022-11-14T20:55:00.354Z,6.43
2022-11-14T20:58:21.000Z,5.87
2022-11-14T21:01:44.029Z,7.70
2022-11-14T21:05:04.922Z,7.00
2022-11-14T21:08:25.215Z,7.13
2022-11-14T21:11:45.408Z,7.17
2022-11-14T21:15:07.377Z,7.73
2022-11-14T21:18:28.280Z,7.13
2022-11-14T21:21:48.555Z,5.90
2022-11-14T21:25:09.138Z,6.87
2022-11-14T21:28:31.419Z,5.83
2022-11-14T21:31:51.659Z,6.93
2022-11-14T21:35:12.017Z,6.70
2022-11-14T21:38:32.645Z,6.90
2022-11-14T21:41:53.319Z,7.07
2022-11-14T21:45:13.702Z,7.03
2022-11-14T21:48:41.224Z,7.10
2022-11-14T21:52:01.990Z,6.63
2022-11-14T21:55:22.347Z,6.80
2022-11-14T21:58:43.366Z,7.57
2022-11-14T22:02:22.795Z,7.73
2022-11-14T22:05:43.289Z,7.80
2022-11-14T22:09:03.972Z,6.93
2022-11-14T22:12:24.306Z,6.03
2022-11-14T22:15:44.672Z,6.07
2022-11-14T22:19:05.887Z,6.73
2022-11-14T22:22:26.256Z,7.60
2022-11-14T22:26:01.525Z,6.83
2022-11-14T22:29:21.704Z,7.67
2022-11-14T22:32:42.015Z,7.40
2022-11-14T22:36:08.666Z,6.83
2022-11-14T22:39:28.806Z,7.60
2022-11-14T22:42:49.019Z,6.70
2022-11-14T22:46:12.695Z,6.97
2022-11-14T22:49:33.129Z,6.50
2022-11-14T22:52:54.647Z,6.77
2022-11-14T22:56:16.622Z,6.27
2022-11-14T22:59:37.022Z,7.43
2022-11-14T23:02:57.279Z,7.00
2022-11-14T23:06:18.948Z,7.30
2022-11-14T23:09:38.939Z,7.07
2022-11-14T23:12:59.439Z,6.27
2022-11-14T23:16:22.473Z,6.83
2022-11-14T23:19:42.989Z,6.70
2022-11-14T23:23:03.713Z,7.20
2022-11-14T23:26:25.143Z,5.80
2022-11-14T23:29:45.480Z,7.57
2022-11-14T23:33:05.775Z,7.27
2022-11-14T23:36:26.248Z,6.67
2022-11-14T23:39:46.575Z,7.07
2022-11-14T23:43:06.968Z,6.63
2022-11-14T23:46:27.462Z,6.60
2022-11-14T23:49:47.738Z,7.17
2022-11-14T23:53:08.571Z,7.20
2022-11-14T23:56:28.668Z,6.77
2022-11-14T23:59:49.135Z,7.40
